ITY2109 LIML-LIRF
Flight info
| Callsign | ITY2109 |
|---|---|
| Flight time | 0h 43m |
| Altitude | 33000 |
| Route | EKPAL DCT TINKU DCT XIBIL |
| Aircraft | A20N/M-SDE2E3FGHIRWXY/LB1 |
Departure
| Time | 2026-02-19 14:48 |
|---|---|
| Airport | Milano Linate Airport (LIML) |
Arrival
| Time | 2026-02-19 15:31 |
|---|---|
| Airport | Rome–Fiumicino Leonardo da Vinci International Airport (LIRF) |
| Time | Latitude | Longitude | Altitude | Speed | Heading |
|---|---|---|---|---|---|
| 2026-02-19 14:20 | 45.45971 | 9.27850 | 366 ft | 0 kts | 1° |
| 2026-02-19 14:38 | 45.45963 | 9.27850 | 369 ft | 2 kts | 2° |
| 2026-02-19 14:38 | 45.45946 | 9.27849 | 369 ft | 2 kts | 2° |
| 2026-02-19 14:38 | 45.45930 | 9.27848 | 366 ft | 2 kts | 4° |
| 2026-02-19 14:39 | 45.45913 | 9.27845 | 366 ft | 2 kts | 10° |
| 2026-02-19 14:39 | 45.45899 | 9.27836 | 368 ft | 1 kts | 56° |
| 2026-02-19 14:39 | 45.45898 | 9.27833 | 367 ft | 0 kts | 58° |
| 2026-02-19 14:41 | 45.45904 | 9.27851 | 366 ft | 8 kts | 66° |
| 2026-02-19 14:42 | 45.45899 | 9.27971 | 367 ft | 11 kts | 140° |
| 2026-02-19 14:42 | 45.45826 | 9.27985 | 366 ft | 10 kts | 183° |
| 2026-02-19 14:42 | 45.45752 | 9.27984 | 366 ft | 13 kts | 179° |
| 2026-02-19 14:42 | 45.45643 | 9.27984 | 369 ft | 18 kts | 179° |
| 2026-02-19 14:43 | 45.45500 | 9.27978 | 365 ft | 23 kts | 180° |
| 2026-02-19 14:43 | 45.45331 | 9.27940 | 369 ft | 27 kts | 207° |
| 2026-02-19 14:43 | 45.45145 | 9.27875 | 365 ft | 28 kts | 174° |
| 2026-02-19 14:43 | 45.44955 | 9.27883 | 366 ft | 23 kts | 159° |
| 2026-02-19 14:44 | 45.44804 | 9.27942 | 364 ft | 23 kts | 177° |
| 2026-02-19 14:44 | 45.44501 | 9.27977 | 359 ft | 21 kts | 173° |
| 2026-02-19 14:44 | 45.44356 | 9.27990 | 358 ft | 21 kts | 175° |
| 2026-02-19 14:45 | 45.44197 | 9.28012 | 363 ft | 26 kts | 174° |
| 2026-02-19 14:45 | 45.44002 | 9.28032 | 357 ft | 30 kts | 179° |
| 2026-02-19 14:45 | 45.43780 | 9.28067 | 356 ft | 34 kts | 178° |
| 2026-02-19 14:45 | 45.43543 | 9.28082 | 352 ft | 30 kts | 179° |
| 2026-02-19 14:46 | 45.43446 | 9.27980 | 357 ft | 18 kts | 266° |
| 2026-02-19 14:46 | 45.43441 | 9.27843 | 358 ft | 8 kts | 281° |
| 2026-02-19 14:46 | 45.43482 | 9.27815 | 353 ft | 7 kts | 2° |
| 2026-02-19 14:46 | 45.43499 | 9.27815 | 353 ft | 0 kts | 356° |
| 2026-02-19 14:47 | 45.43685 | 9.27796 | 357 ft | 63 kts | 355° |
| 2026-02-19 14:47 | 45.44376 | 9.27720 | 360 ft | 136 kts | 355° |
| 2026-02-19 14:47 | 45.45450 | 9.27606 | 740 ft | 158 kts | 354° |
| 2026-02-19 14:48 | 45.46529 | 9.27494 | 1637 ft | 153 kts | 354° |
| 2026-02-19 14:48 | 45.48626 | 9.28511 | 2709 ft | 189 kts | 53° |
| 2026-02-19 14:48 | 45.48825 | 9.30368 | 3039 ft | 208 kts | 107° |
| 2026-02-19 14:49 | 45.47920 | 9.32041 | 3279 ft | 226 kts | 144° |
| 2026-02-19 14:49 | 45.46603 | 9.33450 | 3507 ft | 251 kts | 144° |
| 2026-02-19 14:49 | 45.45220 | 9.35161 | 3854 ft | 273 kts | 141° |
| 2026-02-19 14:49 | 45.43683 | 9.36879 | 4410 ft | 285 kts | 152° |
| 2026-02-19 14:50 | 45.41943 | 9.38182 | 5112 ft | 282 kts | 156° |
| 2026-02-19 14:50 | 45.40175 | 9.39393 | 4977 ft | 281 kts | 158° |
| 2026-02-19 14:50 | 45.38457 | 9.40713 | 4727 ft | 279 kts | 151° |
| 2026-02-19 14:50 | 45.36776 | 9.42110 | 4959 ft | 280 kts | 152° |
| 2026-02-19 14:51 | 45.35089 | 9.43499 | 5049 ft | 280 kts | 152° |
| 2026-02-19 14:51 | 45.33414 | 9.44859 | 5064 ft | 281 kts | 153° |
| 2026-02-19 14:51 | 45.31683 | 9.46158 | 5162 ft | 283 kts | 150° |
| 2026-02-19 14:51 | 45.30004 | 9.47642 | 5813 ft | 285 kts | 154° |
| 2026-02-19 14:52 | 45.28287 | 9.49070 | 6572 ft | 287 kts | 154° |
| 2026-02-19 14:52 | 45.24820 | 9.52055 | 7996 ft | 297 kts | 148° |
| 2026-02-19 14:52 | 45.23051 | 9.53609 | 8738 ft | 302 kts | 152° |
| 2026-02-19 14:53 | 45.21122 | 9.54858 | 9476 ft | 308 kts | 159° |
| 2026-02-19 14:53 | 45.19085 | 9.55959 | 10016 ft | 321 kts | 161° |
| 2026-02-19 14:53 | 45.16918 | 9.57080 | 10356 ft | 340 kts | 161° |
| 2026-02-19 14:53 | 45.14663 | 9.58240 | 10714 ft | 358 kts | 161° |
| 2026-02-19 14:54 | 45.12263 | 9.59474 | 11096 ft | 375 kts | 161° |
| 2026-02-19 14:54 | 45.09768 | 9.60759 | 11629 ft | 387 kts | 160° |
| 2026-02-19 14:54 | 45.07257 | 9.62219 | 12297 ft | 394 kts | 157° |
| 2026-02-19 14:54 | 45.04719 | 9.63861 | 12782 ft | 407 kts | 156° |
| 2026-02-19 14:55 | 45.02134 | 9.65564 | 13476 ft | 412 kts | 156° |
| 2026-02-19 14:55 | 44.99524 | 9.67283 | 14189 ft | 415 kts | 156° |
| 2026-02-19 14:55 | 44.96902 | 9.69004 | 14925 ft | 416 kts | 156° |
| 2026-02-19 14:55 | 44.94277 | 9.70723 | 15739 ft | 416 kts | 156° |
| 2026-02-19 14:56 | 44.91626 | 9.72455 | 16367 ft | 420 kts | 156° |
| 2026-02-19 14:56 | 44.86297 | 9.75927 | 17621 ft | 428 kts | 156° |
| 2026-02-19 14:56 | 44.83582 | 9.77694 | 18225 ft | 431 kts | 156° |
| 2026-02-19 14:57 | 44.80848 | 9.79471 | 18848 ft | 433 kts | 155° |
| 2026-02-19 14:57 | 44.78100 | 9.81254 | 19500 ft | 435 kts | 156° |
| 2026-02-19 14:57 | 44.75346 | 9.83040 | 20185 ft | 435 kts | 156° |
| 2026-02-19 14:57 | 44.72597 | 9.84821 | 20873 ft | 436 kts | 156° |
| 2026-02-19 14:58 | 44.69859 | 9.86655 | 21442 ft | 439 kts | 152° |
| 2026-02-19 14:58 | 44.67345 | 9.89090 | 22103 ft | 440 kts | 140° |
| 2026-02-19 14:58 | 44.65130 | 9.92067 | 22761 ft | 441 kts | 135° |
| 2026-02-19 14:58 | 44.62978 | 9.95176 | 23218 ft | 447 kts | 135° |
| 2026-02-19 14:59 | 44.60821 | 9.98323 | 23695 ft | 448 kts | 135° |
| 2026-02-19 14:59 | 44.58645 | 10.01487 | 24065 ft | 453 kts | 135° |
| 2026-02-19 14:59 | 44.56444 | 10.04676 | 24525 ft | 455 kts | 136° |
| 2026-02-19 14:59 | 44.54237 | 10.07863 | 25019 ft | 456 kts | 135° |
| 2026-02-19 15:00 | 44.52008 | 10.11070 | 25410 ft | 459 kts | 136° |
| 2026-02-19 15:00 | 44.47071 | 10.16605 | 26256 ft | 459 kts | 152° |
| 2026-02-19 15:00 | 44.44205 | 10.18578 | 26665 ft | 459 kts | 158° |
| 2026-02-19 15:01 | 44.41248 | 10.20291 | 27068 ft | 461 kts | 161° |
| 2026-02-19 15:01 | 44.38247 | 10.21872 | 27674 ft | 457 kts | 162° |
| 2026-02-19 15:01 | 44.35277 | 10.23381 | 28420 ft | 452 kts | 163° |
| 2026-02-19 15:01 | 44.32324 | 10.24875 | 29053 ft | 449 kts | 163° |
| 2026-02-19 15:02 | 44.29391 | 10.26370 | 29599 ft | 448 kts | 163° |
| 2026-02-19 15:02 | 44.26471 | 10.27876 | 30017 ft | 447 kts | 163° |
| 2026-02-19 15:02 | 44.23552 | 10.29396 | 30359 ft | 448 kts | 163° |
| 2026-02-19 15:02 | 44.20625 | 10.30929 | 30717 ft | 449 kts | 163° |
| 2026-02-19 15:03 | 44.17707 | 10.32462 | 31090 ft | 449 kts | 163° |
| 2026-02-19 15:03 | 44.14814 | 10.33984 | 31427 ft | 449 kts | 163° |
| 2026-02-19 15:03 | 44.11892 | 10.35520 | 31812 ft | 448 kts | 163° |
| 2026-02-19 15:03 | 44.08957 | 10.37061 | 32178 ft | 448 kts | 163° |
| 2026-02-19 15:04 | 44.06042 | 10.38588 | 32508 ft | 449 kts | 163° |
| 2026-02-19 15:04 | 43.97264 | 10.43173 | 32609 ft | 450 kts | 163° |
| 2026-02-19 15:05 | 43.91394 | 10.46233 | 32626 ft | 450 kts | 164° |
| 2026-02-19 15:05 | 43.85529 | 10.49282 | 32643 ft | 450 kts | 164° |
| 2026-02-19 15:06 | 43.79659 | 10.52327 | 32653 ft | 450 kts | 164° |
| 2026-02-19 15:06 | 43.73755 | 10.55268 | 32663 ft | 449 kts | 166° |
| 2026-02-19 15:07 | 43.67871 | 10.58003 | 32648 ft | 448 kts | 167° |
| 2026-02-19 15:07 | 43.62008 | 10.60723 | 32653 ft | 442 kts | 167° |
| 2026-02-19 15:08 | 43.54245 | 10.64318 | 32640 ft | 441 kts | 167° |
| 2026-02-19 15:08 | 43.51327 | 10.65668 | 32391 ft | 441 kts | 167° |
| 2026-02-19 15:09 | 43.47469 | 10.67450 | 32058 ft | 441 kts | 167° |
| 2026-02-19 15:09 | 43.44556 | 10.68795 | 31801 ft | 441 kts | 167° |
| 2026-02-19 15:09 | 43.42621 | 10.69688 | 31635 ft | 441 kts | 167° |
| 2026-02-19 15:09 | 43.39713 | 10.71028 | 31390 ft | 441 kts | 167° |
| 2026-02-19 15:10 | 43.36806 | 10.72366 | 31139 ft | 440 kts | 166° |
| 2026-02-19 15:10 | 43.33895 | 10.73706 | 30885 ft | 440 kts | 166° |
| 2026-02-19 15:10 | 43.30990 | 10.75040 | 30625 ft | 440 kts | 167° |
| 2026-02-19 15:10 | 43.28083 | 10.76374 | 30380 ft | 441 kts | 167° |
| 2026-02-19 15:11 | 43.25169 | 10.77710 | 30141 ft | 441 kts | 166° |
| 2026-02-19 15:11 | 43.22294 | 10.79027 | 29915 ft | 440 kts | 166° |
| 2026-02-19 15:11 | 43.19379 | 10.80361 | 29662 ft | 440 kts | 166° |
| 2026-02-19 15:11 | 43.16481 | 10.81686 | 29378 ft | 440 kts | 166° |
| 2026-02-19 15:12 | 43.13569 | 10.83016 | 29094 ft | 440 kts | 166° |
| 2026-02-19 15:12 | 43.07752 | 10.85669 | 28507 ft | 440 kts | 167° |
| 2026-02-19 15:12 | 43.04844 | 10.86993 | 28228 ft | 440 kts | 167° |
| 2026-02-19 15:13 | 43.01940 | 10.88313 | 27956 ft | 440 kts | 167° |
| 2026-02-19 15:13 | 42.99031 | 10.89634 | 27690 ft | 441 kts | 166° |
| 2026-02-19 15:13 | 42.96111 | 10.90959 | 27419 ft | 442 kts | 166° |
| 2026-02-19 15:13 | 42.93229 | 10.92267 | 27162 ft | 439 kts | 166° |
| 2026-02-19 15:14 | 42.90375 | 10.93565 | 27012 ft | 424 kts | 167° |
| 2026-02-19 15:14 | 42.87611 | 10.95059 | 26876 ft | 432 kts | 160° |
| 2026-02-19 15:14 | 42.84974 | 10.97125 | 26762 ft | 454 kts | 150° |
| 2026-02-19 15:14 | 42.82525 | 10.99950 | 26553 ft | 464 kts | 140° |
| 2026-02-19 15:15 | 42.80294 | 11.03143 | 26302 ft | 466 kts | 138° |
| 2026-02-19 15:15 | 42.78099 | 11.06429 | 26042 ft | 467 kts | 137° |
| 2026-02-19 15:15 | 42.75912 | 11.09720 | 25776 ft | 468 kts | 137° |
| 2026-02-19 15:15 | 42.73736 | 11.12989 | 24966 ft | 467 kts | 137° |
| 2026-02-19 15:16 | 42.71555 | 11.16248 | 23751 ft | 477 kts | 137° |
| 2026-02-19 15:16 | 42.67092 | 11.22910 | 22123 ft | 468 kts | 137° |
| 2026-02-19 15:16 | 42.64903 | 11.26173 | 21274 ft | 465 kts | 137° |
| 2026-02-19 15:17 | 42.62742 | 11.29389 | 20483 ft | 459 kts | 137° |
| 2026-02-19 15:17 | 42.60598 | 11.32572 | 19623 ft | 451 kts | 137° |
| 2026-02-19 15:17 | 42.58497 | 11.35691 | 18541 ft | 443 kts | 137° |
| 2026-02-19 15:17 | 42.56452 | 11.38721 | 17633 ft | 434 kts | 136° |
| 2026-02-19 15:18 | 42.54452 | 11.41683 | 16962 ft | 419 kts | 136° |
| 2026-02-19 15:18 | 42.52497 | 11.44572 | 16167 ft | 415 kts | 136° |
| 2026-02-19 15:18 | 42.50537 | 11.47461 | 15328 ft | 416 kts | 136° |
| 2026-02-19 15:18 | 42.48574 | 11.50351 | 14492 ft | 417 kts | 135° |
| 2026-02-19 15:19 | 42.46610 | 11.53242 | 13660 ft | 417 kts | 135° |
| 2026-02-19 15:19 | 42.44648 | 11.56129 | 12752 ft | 416 kts | 135° |
| 2026-02-19 15:19 | 42.42687 | 11.59013 | 11875 ft | 414 kts | 135° |
| 2026-02-19 15:19 | 42.40748 | 11.61865 | 11090 ft | 411 kts | 135° |
| 2026-02-19 15:20 | 42.38848 | 11.64659 | 10857 ft | 393 kts | 135° |
| 2026-02-19 15:20 | 42.35329 | 11.69829 | 10584 ft | 358 kts | 136° |
| 2026-02-19 15:20 | 42.33680 | 11.72247 | 10449 ft | 343 kts | 136° |
| 2026-02-19 15:21 | 42.32093 | 11.74569 | 10325 ft | 329 kts | 136° |
| 2026-02-19 15:21 | 42.30573 | 11.76790 | 10166 ft | 317 kts | 136° |
| 2026-02-19 15:21 | 42.29101 | 11.78940 | 10014 ft | 306 kts | 136° |
| 2026-02-19 15:21 | 42.27664 | 11.81032 | 9686 ft | 302 kts | 136° |
| 2026-02-19 15:22 | 42.24823 | 11.85168 | 8824 ft | 299 kts | 136° |
| 2026-02-19 15:22 | 42.23411 | 11.87221 | 8350 ft | 298 kts | 136° |
| 2026-02-19 15:22 | 42.22002 | 11.89270 | 7957 ft | 295 kts | 136° |
| 2026-02-19 15:23 | 42.20607 | 11.91300 | 7515 ft | 295 kts | 136° |
| 2026-02-19 15:23 | 42.19215 | 11.93319 | 7102 ft | 294 kts | 136° |
| 2026-02-19 15:23 | 42.17833 | 11.95327 | 6691 ft | 291 kts | 136° |
| 2026-02-19 15:23 | 42.16474 | 11.97298 | 6278 ft | 290 kts | 136° |
| 2026-02-19 15:24 | 42.12381 | 12.03230 | 4944 ft | 286 kts | 135° |
| 2026-02-19 15:24 | 42.11031 | 12.05201 | 4514 ft | 286 kts | 135° |
| 2026-02-19 15:25 | 42.09691 | 12.07164 | 4138 ft | 284 kts | 135° |
| 2026-02-19 15:25 | 42.08351 | 12.09128 | 3691 ft | 284 kts | 136° |
| 2026-02-19 15:25 | 42.07015 | 12.11084 | 3217 ft | 284 kts | 135° |
| 2026-02-19 15:25 | 42.05685 | 12.13033 | 2870 ft | 279 kts | 135° |
| 2026-02-19 15:26 | 42.04376 | 12.14943 | 2473 ft | 276 kts | 135° |
| 2026-02-19 15:26 | 42.03105 | 12.16795 | 2330 ft | 262 kts | 135° |
| 2026-02-19 15:26 | 42.01851 | 12.18445 | 2312 ft | 241 kts | 147° |
| 2026-02-19 15:26 | 42.00458 | 12.19486 | 2484 ft | 217 kts | 164° |
| 2026-02-19 15:27 | 41.99108 | 12.20050 | 2480 ft | 190 kts | 169° |
| 2026-02-19 15:27 | 41.97925 | 12.20534 | 2471 ft | 166 kts | 170° |
| 2026-02-19 15:27 | 41.96885 | 12.20975 | 2471 ft | 154 kts | 169° |
| 2026-02-19 15:27 | 41.95860 | 12.21405 | 2410 ft | 156 kts | 172° |
| 2026-02-19 15:28 | 41.94812 | 12.21843 | 2195 ft | 158 kts | 172° |
| 2026-02-19 15:28 | 41.92724 | 12.22760 | 1771 ft | 157 kts | 172° |
| 2026-02-19 15:28 | 41.91690 | 12.23207 | 1573 ft | 154 kts | 173° |
| 2026-02-19 15:29 | 41.90663 | 12.23555 | 1340 ft | 151 kts | 176° |
| 2026-02-19 15:29 | 41.89649 | 12.23970 | 1125 ft | 152 kts | 167° |
| 2026-02-19 15:29 | 41.88692 | 12.24564 | 1012 ft | 150 kts | 168° |
| 2026-02-19 15:30 | 41.86718 | 12.25278 | 652 ft | 152 kts | 166° |
| 2026-02-19 15:30 | 41.85720 | 12.25722 | 362 ft | 148 kts | 178° |
| 2026-02-19 15:30 | 41.84735 | 12.26103 | 111 ft | 149 kts | 171° |
| 2026-02-19 15:30 | 41.83783 | 12.26497 | 19 ft | 136 kts | 166° |
| 2026-02-19 15:31 | 41.82988 | 12.26820 | 20 ft | 102 kts | 161° |
| 2026-02-19 15:31 | 41.82165 | 12.27138 | 14 ft | 39 kts | 174° |
| 2026-02-19 15:31 | 41.81952 | 12.27115 | 13 ft | 21 kts | 198° |
| 2026-02-19 15:32 | 41.81891 | 12.27088 | 15 ft | 5 kts | 195° |
| 2026-02-19 15:32 | 41.81864 | 12.27079 | 16 ft | 0 kts | 193° |
| 2026-02-19 15:33 | 41.81764 | 12.27026 | 18 ft | 17 kts | 181° |
| 2026-02-19 15:33 | 41.81620 | 12.27074 | 22 ft | 22 kts | 162° |
| 2026-02-19 15:33 | 41.81483 | 12.27132 | 23 ft | 20 kts | 162° |
| 2026-02-19 15:34 | 41.81196 | 12.27253 | 17 ft | 23 kts | 164° |
| 2026-02-19 15:34 | 41.81035 | 12.27318 | 15 ft | 25 kts | 161° |
| 2026-02-19 15:34 | 41.80889 | 12.27349 | 17 ft | 20 kts | 189° |
| 2026-02-19 15:35 | 41.80747 | 12.27318 | 16 ft | 21 kts | 194° |
| 2026-02-19 15:35 | 41.80655 | 12.27223 | 17 ft | 14 kts | 248° |
| 2026-02-19 15:35 | 41.80619 | 12.27091 | 16 ft | 16 kts | 250° |
| 2026-02-19 15:35 | 41.80573 | 12.26928 | 19 ft | 21 kts | 248° |
| 2026-02-19 15:36 | 41.80517 | 12.26728 | 16 ft | 25 kts | 249° |
| 2026-02-19 15:36 | 41.80343 | 12.26374 | 16 ft | 23 kts | 163° |
| 2026-02-19 15:36 | 41.80189 | 12.26393 | 19 ft | 23 kts | 207° |
| 2026-02-19 15:37 | 41.80032 | 12.26300 | 21 ft | 27 kts | 199° |
| 2026-02-19 15:37 | 41.79881 | 12.26198 | 25 ft | 15 kts | 199° |
| 2026-02-19 15:37 | 41.79831 | 12.26096 | 22 ft | 16 kts | 284° |
| 2026-02-19 15:37 | 41.79875 | 12.25964 | 24 ft | 17 kts | 301° |
| 2026-02-19 15:38 | 41.79873 | 12.25819 | 21 ft | 19 kts | 209° |
| 2026-02-19 15:38 | 41.79772 | 12.25746 | 23 ft | 14 kts | 207° |
| 2026-02-19 15:38 | 41.79688 | 12.25697 | 23 ft | 11 kts | 203° |
| 2026-02-19 15:38 | 41.79672 | 12.25664 | 22 ft | 4 kts | 273° |
| 2026-02-19 15:39 | 41.79684 | 12.25635 | 24 ft | 4 kts | 303° |
| 2026-02-19 15:39 | 41.79690 | 12.25619 | 23 ft | 0 kts | 297° |